createdAt,value
2018-06-23T00:01:50.452Z,6.23
2018-06-23T00:04:18.785Z,3.93
2018-06-23T00:06:47.089Z,5.43
2018-06-23T00:09:15.408Z,4.50
2018-06-23T00:11:43.719Z,4.30
2018-06-23T00:14:12.228Z,5.07
2018-06-23T00:16:42.484Z,8.67
2018-06-23T00:19:10.880Z,5.70
2018-06-23T00:21:39.253Z,4.73
2018-06-23T00:24:08.108Z,8.90
2018-06-23T00:26:36.453Z,2.93
2018-06-23T00:29:04.808Z,6.70
2018-06-23T00:31:33.110Z,9.43
2018-06-23T00:34:01.417Z,9.33
2018-06-23T00:36:29.726Z,9.23
2018-06-23T00:38:58.220Z,5.30
2018-06-23T00:41:26.482Z,5.70
2018-06-23T00:43:54.771Z,8.90
2018-06-23T00:46:23.698Z,10.33
2018-06-23T00:48:52.000Z,7.23
2018-06-23T00:51:20.340Z,7.40
2018-06-23T00:53:48.720Z,5.70
2018-06-23T00:56:17.034Z,7.80
2018-06-23T00:58:57.136Z,9.93
2018-06-23T01:01:25.373Z,7.43
2018-06-23T01:03:54.281Z,7.53
2018-06-23T01:06:22.595Z,9.73
2018-06-23T01:08:50.641Z,8.03
2018-06-23T01:11:18.939Z,10.80
2018-06-23T01:13:47.241Z,16.80
2018-06-23T01:16:15.548Z,8.63
2018-06-23T01:18:44.164Z,9.83
2018-06-23T01:21:12.484Z,8.40
2018-06-23T01:23:40.752Z,4.00
2018-06-23T01:26:08.800Z,7.90
2018-06-23T01:28:37.159Z,9.93
2018-06-23T01:31:05.916Z,8.87
2018-06-23T01:33:34.417Z,6.87
2018-06-23T01:36:03.012Z,8.07
2018-06-23T01:38:31.330Z,8.93
2018-06-23T01:41:01.396Z,10.20
2018-06-23T01:43:31.153Z,8.77
2018-06-23T01:45:59.429Z,7.50
2018-06-23T01:48:27.968Z,11.87
2018-06-23T01:50:56.252Z,10.03
2018-06-23T01:53:25.899Z,10.37
2018-06-23T01:55:53.928Z,7.13
2018-06-23T01:58:22.303Z,10.13
2018-06-23T02:00:50.960Z,8.30
2018-06-23T02:03:19.283Z,5.90
2018-06-23T02:05:47.865Z,8.83
2018-06-23T02:08:16.160Z,8.73
2018-06-23T02:10:44.459Z,5.43
2018-06-23T02:13:12.740Z,8.50
2018-06-23T02:15:46.425Z,5.40
2018-06-23T02:19:18.696Z,5.17
2018-06-23T02:21:53.099Z,6.97
2018-06-23T02:24:26.825Z,7.60
2018-06-23T02:27:00.514Z,6.33
2018-06-23T02:29:34.245Z,4.17
2018-06-23T02:32:07.853Z,5.97
2018-06-23T02:34:41.637Z,11.40
2018-06-23T02:37:09.917Z,8.77
2018-06-23T02:39:38.459Z,9.07
2018-06-23T02:42:07.344Z,14.03
2018-06-23T02:44:35.713Z,12.07
2018-06-23T02:47:04.762Z,14.50
2018-06-23T02:49:34.016Z,11.63
2018-06-23T02:52:02.316Z,9.70
2018-06-23T02:54:30.684Z,10.43
2018-06-23T02:56:58.953Z,11.30
2018-06-23T02:59:27.247Z,7.93
2018-06-23T03:01:55.524Z,13.27
2018-06-23T03:04:23.805Z,7.90
2018-06-23T03:06:52.078Z,11.87
2018-06-23T03:09:20.391Z,11.90
2018-06-23T03:11:48.651Z,12.40
2018-06-23T03:14:16.936Z,15.57
2018-06-23T03:16:45.292Z,11.33
2018-06-23T03:19:13.607Z,10.33
2018-06-23T03:21:41.919Z,15.33
2018-06-23T03:24:10.241Z,21.00
2018-06-23T03:26:38.802Z,15.57
2018-06-23T03:29:07.101Z,15.80
2018-06-23T03:31:35.573Z,16.03
2018-06-23T03:34:03.835Z,10.90
2018-06-23T03:36:32.174Z,12.27
2018-06-23T03:39:00.536Z,18.10
2018-06-23T03:41:28.888Z,13.33
2018-06-23T03:43:57.185Z,12.77
2018-06-23T03:46:25.214Z,24.27
2018-06-23T03:48:53.613Z,26.03
2018-06-23T03:51:21.963Z,18.77
2018-06-23T03:53:50.309Z,25.47
2018-06-23T03:56:19.094Z,31.63
2018-06-23T03:58:47.392Z,27.77
2018-06-23T04:01:15.698Z,21.53
2018-06-23T04:03:44.184Z,21.80
2018-06-23T04:06:12.533Z,23.73
2018-06-23T04:08:40.780Z,17.27
2018-06-23T04:11:09.061Z,25.60
2018-06-23T04:13:41.280Z,22.30
2018-06-23T04:16:09.621Z,19.60
2018-06-23T04:18:37.901Z,23.40
2018-06-23T04:21:06.247Z,19.43
2018-06-23T04:23:34.584Z,17.47
2018-06-23T04:26:13.393Z,18.30
2018-06-23T04:28:41.717Z,24.30
2018-06-23T04:31:11.636Z,18.60
2018-06-23T04:33:40.076Z,17.97
2018-06-23T04:36:08.801Z,14.07
2018-06-23T04:38:37.180Z,17.47
2018-06-23T04:41:05.534Z,15.87
2018-06-23T04:43:34.216Z,17.00
2018-06-23T04:46:03.105Z,18.73
2018-06-23T04:48:31.396Z,18.73
2018-06-23T04:51:00.176Z,13.67
2018-06-23T04:53:28.578Z,11.90
2018-06-23T04:55:58.759Z,16.57
2018-06-23T04:58:27.052Z,10.38
2018-06-23T05:00:55.388Z,14.73
2018-06-23T05:03:23.656Z,11.53
2018-06-23T05:05:51.940Z,12.63
2018-06-23T05:08:20.431Z,11.00
2018-06-23T05:10:48.939Z,15.63
2018-06-23T05:13:17.280Z,15.90
2018-06-23T05:15:45.512Z,12.00
2018-06-23T05:18:13.892Z,10.43
2018-06-23T05:20:42.212Z,17.70
2018-06-23T05:23:14.309Z,12.83
2018-06-23T05:25:42.564Z,13.30
2018-06-23T05:28:10.980Z,13.53
2018-06-23T05:30:39.311Z,12.23
2018-06-23T05:33:07.831Z,16.57
2018-06-23T05:35:36.260Z,21.70
2018-06-23T05:38:04.591Z,14.20
2018-06-23T05:40:32.935Z,14.57
2018-06-23T05:43:02.003Z,16.10
2018-06-23T05:45:30.431Z,8.95
2018-06-23T05:48:12.971Z,14.25
2018-06-23T05:50:41.495Z,13.87
2018-06-23T05:53:09.915Z,14.35
2018-06-23T05:55:39.034Z,16.70
2018-06-23T05:58:07.426Z,17.80
2018-06-23T06:00:36.235Z,16.02
2018-06-23T06:03:04.890Z,16.50
2018-06-23T06:05:33.196Z,13.03
2018-06-23T06:08:01.495Z,14.38
2018-06-23T06:10:29.900Z,15.75
2018-06-23T06:12:58.624Z,16.73
2018-06-23T06:15:26.954Z,14.28
2018-06-23T06:17:55.275Z,17.53
2018-06-23T06:20:23.956Z,13.60
2018-06-23T06:22:52.287Z,18.23
2018-06-23T06:25:21.679Z,16.97
2018-06-23T06:27:50.214Z,15.57
2018-06-23T06:30:18.225Z,16.37
2018-06-23T06:32:46.583Z,19.07
2018-06-23T06:35:14.944Z,15.17
2018-06-23T06:37:43.017Z,11.50
2018-06-23T06:40:11.327Z,18.25
2018-06-23T06:42:39.638Z,13.00
2018-06-23T06:45:08.163Z,8.90
2018-06-23T06:47:36.498Z,14.63
2018-06-23T06:52:42.236Z,14.63
2018-06-23T06:55:10.576Z,17.20
2018-06-23T06:57:39.125Z,14.58
2018-06-23T07:00:08.140Z,12.93
2018-06-23T07:02:36.526Z,10.30
2018-06-23T07:05:05.263Z,9.33
2018-06-23T07:07:33.532Z,12.68
2018-06-23T07:10:02.131Z,12.95
2018-06-23T07:12:30.552Z,12.53
2018-06-23T07:14:58.884Z,10.60
2018-06-23T07:17:28.064Z,12.28
2018-06-23T07:19:56.379Z,8.28
2018-06-23T07:22:24.638Z,12.37
2018-06-23T07:24:53.176Z,10.50
2018-06-23T07:27:21.474Z,9.05
2018-06-23T07:29:49.756Z,9.63
2018-06-23T07:32:18.064Z,11.18
2018-06-23T07:34:46.462Z,12.65
2018-06-23T07:37:14.897Z,10.93
2018-06-23T07:39:43.188Z,12.80
2018-06-23T07:42:11.476Z,8.30
2018-06-23T07:44:39.703Z,10.82
2018-06-23T07:47:08.859Z,7.70
2018-06-23T07:49:37.153Z,8.85
2018-06-23T07:52:06.363Z,9.55
2018-06-23T07:54:34.370Z,8.55
2018-06-23T07:57:02.760Z,9.15
2018-06-23T07:59:31.616Z,8.10
2018-06-23T08:01:59.892Z,9.68
2018-06-23T08:04:30.230Z,8.93
2018-06-23T08:06:58.872Z,8.85
2018-06-23T08:09:27.153Z,11.43
2018-06-23T08:11:55.815Z,9.65
2018-06-23T08:14:24.103Z,6.53
2018-06-23T08:17:04.646Z,7.60
2018-06-23T08:19:52.674Z,8.45
2018-06-23T08:22:22.335Z,6.67
2018-06-23T08:24:51.129Z,8.83
2018-06-23T08:27:19.450Z,11.20
2018-06-23T08:29:47.771Z,5.83
2018-06-23T08:32:16.061Z,12.40
2018-06-23T08:34:44.977Z,7.17
2018-06-23T08:37:13.308Z,8.35
2018-06-23T08:39:41.613Z,10.95
2018-06-23T08:42:09.943Z,11.57
2018-06-23T08:44:38.418Z,6.47
2018-06-23T08:47:06.821Z,7.70
2018-06-23T08:49:35.140Z,8.93
2018-06-23T08:52:03.434Z,9.65
2018-06-23T08:54:31.793Z,3.67
2018-06-23T08:57:00.152Z,8.25
2018-06-23T08:59:28.787Z,9.60
2018-06-23T09:01:57.166Z,5.05
2018-06-23T09:04:27.768Z,6.53
2018-06-23T09:06:56.060Z,6.92
2018-06-23T09:09:24.385Z,6.20
2018-06-23T09:11:52.725Z,7.00
2018-06-23T09:14:21.037Z,6.08
2018-06-23T09:16:49.391Z,5.90
2018-06-23T09:19:18.188Z,7.20
2018-06-23T09:21:46.813Z,4.05
2018-06-23T09:24:15.096Z,7.15
2018-06-23T09:26:43.578Z,6.60
2018-06-23T09:29:11.852Z,6.67
2018-06-23T09:31:40.552Z,5.00
2018-06-23T09:34:08.896Z,5.25
2018-06-23T09:36:37.467Z,9.33
2018-06-23T09:39:08.378Z,5.95
2018-06-23T09:41:36.926Z,13.28
2018-06-23T09:44:05.807Z,7.40
2018-06-23T09:46:35.347Z,7.12
2018-06-23T09:49:06.365Z,8.33
2018-06-23T09:51:34.537Z,6.15
2018-06-23T09:54:02.863Z,8.35
2018-06-23T09:56:31.776Z,7.72
2018-06-23T09:59:00.242Z,6.95
2018-06-23T10:01:28.620Z,4.50
2018-06-23T10:03:56.968Z,6.95
2018-06-23T10:06:25.346Z,4.28
2018-06-23T10:08:53.596Z,5.87
2018-06-23T10:11:21.915Z,5.05
2018-06-23T10:13:50.248Z,3.27
2018-06-23T10:16:18.608Z,10.72
2018-06-23T10:18:49.197Z,6.42
2018-06-23T10:21:17.527Z,7.17
2018-06-23T10:23:45.572Z,5.65
2018-06-23T10:26:14.091Z,6.65
2018-06-23T10:28:42.637Z,5.33
2018-06-23T10:31:12.011Z,5.45
2018-06-23T10:33:40.343Z,5.22
2018-06-23T10:36:08.676Z,7.15
2018-06-23T10:38:37.335Z,5.60
2018-06-23T10:41:06.256Z,3.10
2018-06-23T10:43:34.812Z,4.22
2018-06-23T10:46:03.149Z,5.22
2018-06-23T10:48:31.956Z,4.92
2018-06-23T10:51:00.298Z,10.82
2018-06-23T10:53:28.625Z,6.20
2018-06-23T10:55:57.114Z,5.75
2018-06-23T10:58:25.810Z,8.83
2018-06-23T11:00:54.244Z,7.87
2018-06-23T11:03:24.079Z,8.73
2018-06-23T11:05:52.410Z,6.05
2018-06-23T11:08:20.692Z,7.03
2018-06-23T11:10:49.050Z,7.08
2018-06-23T11:13:30.151Z,5.87
2018-06-23T11:15:58.808Z,6.28
2018-06-23T11:18:27.078Z,4.67
2018-06-23T11:20:55.448Z,6.03
2018-06-23T11:23:23.700Z,3.05
2018-06-23T11:25:52.272Z,4.25
2018-06-23T11:28:20.557Z,3.22
2018-06-23T11:30:49.136Z,9.40
2018-06-23T11:33:17.396Z,5.60
2018-06-23T11:35:45.647Z,8.18
2018-06-23T11:38:13.939Z,5.62
2018-06-23T11:40:42.320Z,5.10
2018-06-23T11:43:10.988Z,5.60
2018-06-23T11:45:39.299Z,6.90
2018-06-23T11:48:07.594Z,6.80
2018-06-23T11:50:36.399Z,3.70
2018-06-23T11:53:04.707Z,6.10
2018-06-23T11:55:33.029Z,5.50
2018-06-23T11:58:01.379Z,6.33
2018-06-23T12:00:29.780Z,4.30
2018-06-23T12:02:58.212Z,5.97
2018-06-23T12:05:26.510Z,4.45
2018-06-23T12:07:54.834Z,4.25
2018-06-23T12:10:23.094Z,3.70
2018-06-23T12:12:51.351Z,6.67
2018-06-23T12:15:19.643Z,4.00
2018-06-23T12:17:47.703Z,3.25
2018-06-23T12:20:16.015Z,3.25
2018-06-23T12:22:44.416Z,4.20
2018-06-23T12:25:17.698Z,3.22
2018-06-23T12:27:45.988Z,4.75
2018-06-23T12:30:14.336Z,5.58
2018-06-23T12:32:42.664Z,5.12
2018-06-23T12:35:52.033Z,1.57
2018-06-23T12:38:20.965Z,3.45
2018-06-23T12:40:49.308Z,5.35
2018-06-23T12:43:17.572Z,4.25
2018-06-23T12:45:47.349Z,4.58
2018-06-23T12:48:28.172Z,5.47
2018-06-23T12:50:56.440Z,2.92
2018-06-23T12:53:24.838Z,6.72
2018-06-23T12:55:57.152Z,3.77
2018-06-23T12:58:25.720Z,3.27
2018-06-23T13:00:54.137Z,5.92
2018-06-23T13:03:22.749Z,4.80
2018-06-23T13:06:14.359Z,5.03
2018-06-23T13:08:44.877Z,6.22
2018-06-23T13:11:17.196Z,1.50
